»·PEaware :: N433YE KBFL-KFAT

N433YE :: KBFL-KFAT

FLIGHT INFORMATION

Flight Status: Arrived
Operator: Privately registered:
United States
More flights under this callsign
Pilot: Jeremy H. (10741)
Aircraft: Diamond DA-62
(DA62)
More flights by this aircraft type
Origin: KBFL Meadows
United States
Destination: KFAT Fresno Yosemite Intl
United States
More flights between these airports :: More routes between these airports
Route: TTE ALTTA8
File this flight plan on PilotEdge
Remarks:
Altitude:
(Current/Filed)
6,000ft
Speed:
(Current/Filed)
181kts
Departed: 06-Aug-18 07:19 AM
Arrived: 06-Aug-18 07:57 AM
Distance/Time
Traveled:
87nm/0:38
Distance/Time
To Go:
Arrived

Flight Plot

Page will automatically refresh every two minutes.


Map Options




Map Legend


Flown Route
Filed Route
Departure Airport
Arrival Airport
Navaid (VOR, NDB)
Fix

Horizontal Profiles

Position Reports

Time Latitude Longitude Heading Altitude Ground
Speed
06-Aug-18 07:02 35.435704 -119.052044 179 504ft 0kts
06-Aug-18 07:03 35.435704 -119.052044 179 504ft 0kts
06-Aug-18 07:04 35.435704 -119.052044 179 504ft 0kts
06-Aug-18 07:05 35.435704 -119.052044 179 504ft 0kts
06-Aug-18 07:06 35.435704 -119.052044 179 504ft 0kts
06-Aug-18 07:07 35.435704 -119.052044 179 504ft 0kts
06-Aug-18 07:08 35.435704 -119.052044 180 504ft 0kts
06-Aug-18 07:09 35.435704 -119.052044 180 504ft 0kts
06-Aug-18 07:10 35.435704 -119.052044 180 504ft 0kts
06-Aug-18 07:11 35.435704 -119.052044 179 504ft 0kts
06-Aug-18 07:12 35.435704 -119.052044 179 504ft 0kts
06-Aug-18 07:13 35.435704 -119.052044 179 504ft 0kts
06-Aug-18 07:14 35.435289 -119.053640 226 499ft 10kts
06-Aug-18 07:15 35.433111 -119.053070 135 493ft 9kts
06-Aug-18 07:16 35.430294 -119.049673 137 491ft 16kts
06-Aug-18 07:17 35.427449 -119.046231 136 485ft 19kts
06-Aug-18 07:18 35.425700 -119.044726 226 479ft 0kts
06-Aug-18 07:19 35.425463 -119.045489 273 477ft 14kts
06-Aug-18 07:20 35.432508 -119.055023 311 672ft 96kts
06-Aug-18 07:21 35.450028 -119.079014 313 2191ft 93kts
06-Aug-18 07:22 35.468412 -119.101396 344 3649ft 96kts
06-Aug-18 07:23 35.494637 -119.097445 9 5095ft 98kts
06-Aug-18 07:24 35.524890 -119.091998 8 6001ft 146kts
06-Aug-18 07:25 35.571323 -119.083564 8 5984ft 180kts
06-Aug-18 07:26 35.621788 -119.074353 8 5982ft 184kts
06-Aug-18 07:27 35.672349 -119.065116 7 5981ft 184kts
06-Aug-18 07:28 35.723160 -119.055834 7 5983ft 184kts
06-Aug-18 07:29 35.773795 -119.046565 7 5986ft 185kts
06-Aug-18 07:30 35.824576 -119.036012 14 5992ft 185kts
06-Aug-18 07:31 35.870290 -119.018747 344 5993ft 185kts
06-Aug-18 07:32 35.920907 -119.029732 346 5992ft 185kts
06-Aug-18 07:33 35.969969 -119.048675 338 5991ft 185kts
06-Aug-18 07:34 36.018027 -119.070954 337 5991ft 185kts
06-Aug-18 07:35 36.066068 -119.093755 337 5990ft 185kts
06-Aug-18 07:36 36.113486 -119.116349 337 6006ft 184kts
06-Aug-18 07:37 36.161363 -119.139198 337 6004ft 184kts
06-Aug-18 07:38 36.209130 -119.162026 337 6001ft 183kts
06-Aug-18 07:39 36.256681 -119.184847 337 4942ft 183kts
06-Aug-18 07:40 36.303796 -119.207537 338 4028ft 176kts
06-Aug-18 07:41 36.345585 -119.227564 338 3999ft 152kts
06-Aug-18 07:42 36.383923 -119.245950 338 4009ft 146kts
06-Aug-18 07:43 36.421613 -119.264040 338 4009ft 145kts
06-Aug-18 07:44 36.459084 -119.281991 338 4009ft 144kts
06-Aug-18 07:45 36.496703 -119.299917 339 4008ft 144kts
06-Aug-18 07:46 36.534063 -119.317879 339 4007ft 144kts
06-Aug-18 07:47 36.566318 -119.345679 309 4008ft 143kts
06-Aug-18 07:48 36.589465 -119.385804 306 4005ft 141kts
06-Aug-18 07:49 36.612449 -119.427193 306 3591ft 155kts
06-Aug-18 07:50 36.635550 -119.468942 306 2848ft 139kts
06-Aug-18 07:51 36.657108 -119.507872 305 2118ft 135kts
06-Aug-18 07:52 36.677584 -119.543562 306 1942ft 106kts
06-Aug-18 07:53 36.695104 -119.574374 306 1801ft 111kts
06-Aug-18 07:54 36.713223 -119.606034 306 1799ft 112kts
06-Aug-18 07:55 36.731161 -119.637412 306 1640ft 105kts
06-Aug-18 07:56 36.747682 -119.666514 306 1099ft 103kts
06-Aug-18 07:57 36.763901 -119.694879 306 560ft 94kts
06-Aug-18 07:58 36.773301 -119.712951 275 328ft 0kts
06-Aug-18 07:59 36.772997 -119.715437 218 328ft 21kts
06-Aug-18 08:00 36.772617 -119.717823 306 328ft 16kts
06-Aug-18 08:01 36.774791 -119.722709 210 329ft 13kts
06-Aug-18 08:02 36.774316 -119.723254 216 328ft 0kts
06-Aug-18 08:03 36.774316 -119.723254 216 328ft 0kts
06-Aug-18 08:04 36.774316 -119.723254 216 328ft 0kts
06-Aug-18 08:05 36.774316 -119.723254 216 328ft 0kts
06-Aug-18 08:06 36.774316 -119.723254 216 328ft 0kts
06-Aug-18 08:07 36.774316 -119.723254 216 328ft 0kts
06-Aug-18 08:08 36.774316 -119.723254 216 328ft 0kts
06-Aug-18 08:09 36.774316 -119.723254 216 328ft 0kts
06-Aug-18 08:10 36.774316 -119.723254 216 328ft 0kts
06-Aug-18 08:11 36.774316 -119.723254 216 328ft 0kts
06-Aug-18 08:12 36.774316 -119.723254 216 328ft 0kts

Navigation Log

Ident Type
Flight plan parsing failed, navigation log unavailable